Containerships 6 — DABH — position and weather

sailwx.info

Track history (hours):
 
Tides and Currents Weather Stations Pressure Air Temp Water Temp Dewpoint Dewpoint Depression Visibility Wind Speed Wind Dir Waves Ship Positions

Containerships 6

Last reported at 2015-Mar-29 23:33 UTC. Time now 2015-Mar-29 23:48 UTC.
Position N 59°34' E 023°25'.

Length 155 m; beam 21.8 m; draft 8.9 m.

Type: Ship (hazmat cat A). MMSI: 211315096.

Date/timePositionNaut miles runAvg speedWind from/ knotsBaromVisibWave heightAir tempDewpointWater temp
2015-Mar-29 23:33N 59°34' E 023°25'34518.8
2015-Mar-29 05:15N 55°40' E 015°33'1319.3
2015-Mar-29 04:33N 55°34' E 015°12'2019.6
2015-Mar-29 03:33N 55°25' E 014°41'1919.4
2015-Mar-29 02:33N 55°11' E 014°17'1918.6
2015-Mar-29 01:33N 55°11' E 013°44'2218.8
2015-Mar-29 00:24N 55°13' E 013°06'1518.1
2015-Mar-28 23:33N 55°17' E 012°40'1514.7
2015-Mar-28 22:33N 55°32' E 012°42'9 9.4
2015-Mar-28 21:34N 55°41' E 012°41'1616.4
2015-Mar-28 20:34N 55°57' E 012°40'1616.5
2015-Mar-28 19:34N 56°11' E 012°22'1717.2
2015-Mar-28 18:33N 56°23' E 012°01'1919.1
2015-Mar-28 17:33N 56°42' E 011°54'1918.9
2015-Mar-28 16:33N 56°60' E 011°42'1918.6
2015-Mar-28 15:33N 57°17' E 011°30'1818.1
2015-Mar-28 14:33N 57°33' E 011°12'1818.0
2015-Mar-28 13:33N 57°45' E 010°49'1918.7
2015-Mar-28 12:33N 57°43' E 010°14'8118.9
2015-Mar-28 08:14N 56°57' E 008°10'8818.7
2015-Mar-28 03:31N 55°42' E 006°44'9818.9
2015-Mar-27 22:21N 54°20' E 005°14'1519.0
2015-Mar-27 21:33N 54°07' E 005°01'1918.7
2015-Mar-27 20:33N 53°48' E 004°53'1818.4
2015-Mar-27 19:33N 53°30' E 004°47'1817.9
2015-Mar-27 18:33N 53°15' E 004°33'5317.6
2015-Mar-27 15:33N 52°27' E 003°54'1717.2
2015-Mar-27 14:33N 52°10' E 003°54'1312.6
2015-Mar-27 13:34N 51°59' E 004°05'1312.7
2015-Mar-27 12:33N 51°54' E 004°23'1 1.4
2015-Mar-27 11:31N 51°53' E 004°25'0 0.0
2015-Mar-27 10:31N 51°53' E 004°25'0 0.0
2015-Mar-27 09:31N 51°53' E 004°25'0 0.0
2015-Mar-27 08:31N 51°53' E 004°25'0 0.0
2015-Mar-27 07:31N 51°53' E 004°25'0 0.0
2015-Mar-27 06:31N 51°53' E 004°25'0 0.0
2015-Mar-27 05:31N 51°53' E 004°25'0 0.0
2015-Mar-27 04:31N 51°53' E 004°25'0 0.0
2015-Mar-27 03:31N 51°53' E 004°25'0 0.0
2015-Mar-27 02:31N 51°53' E 004°25'0 0.0
2015-Mar-27 01:31N 51°53' E 004°25'0 0.0
2015-Mar-27 00:31N 51°53' E 004°25'0 0.0
2015-Mar-26 23:31N 51°53' E 004°25'0 0.0
2015-Mar-26 22:28N 51°53' E 004°25'0 0.0
2015-Mar-26 21:31N 51°53' E 004°25'0 0.0
2015-Mar-26 20:31N 51°53' E 004°25'0 0.0
2015-Mar-26 19:31N 51°53' E 004°25'0 0.0
2015-Mar-26 18:31N 51°53' E 004°25'0 0.0
2015-Mar-26 17:31N 51°53' E 004°25'0 0.0
2015-Mar-26 16:31N 51°53' E 004°25'0 0.0
2015-Mar-26 15:34N 51°53' E 004°25'8 7.6
2015-Mar-26 14:33N 51°55' E 004°14'1514.9
2015-Mar-26 13:34N 52°01' E 003°51'8717.5
2015-Mar-26 08:33N 52°49' E 001°51'1717.1
2015-Mar-26 07:33N 53°01' E 001°31'1717.2
2015-Mar-26 06:33N 53°15' E 001°13'3517.4
2015-Mar-26 04:32N 53°44' E 000°43'1717.6
2015-Mar-26 03:33N 53°57' E 000°23'1817.8
2015-Mar-26 02:34N 54°09' E 000°01'1717.1
2015-Mar-26 01:33N 54°23' W 000°17'1817.6
2015-Mar-26 00:33N 54°34' W 000°40'1716.7
2015-Mar-25 23:33N 54°40' W 001°07'4 0.6
2015-Mar-25 17:32N 54°36' W 001°09'0 0.0
2015-Mar-25 16:32N 54°36' W 001°09'0 0.0
2015-Mar-25 15:32N 54°36' W 001°09'0 0.0
2015-Mar-25 14:32N 54°36' W 001°09'0 0.0
2015-Mar-25 13:20N 54°36' W 001°09'0 0.0
2015-Mar-25 12:32N 54°36' W 001°09'0 0.5
2015-Mar-25 11:33N 54°36' W 001°10'4 4.2
2015-Mar-25 10:33N 54°40' W 001°07'1716.8
2015-Mar-25 09:33N 54°49' W 000°41'2018.2
2015-Mar-25 08:28N 54°57' W 000°10'38018.2
2015-Mar-24 11:33N 57°44' E 010°06'1817.9
2015-Mar-24 10:33N 57°48' E 010°38'1817.5
2015-Mar-24 09:33N 57°39' E 011°06'1818.2
2015-Mar-24 08:33N 57°25' E 011°29'1817.9
2015-Mar-24 07:34N 57°08' E 011°39'1817.9
2015-Mar-24 06:33N 56°51' E 011°51'1616.4
2015-Mar-24 05:33N 56°35' E 011°45'1818.0
2015-Mar-24 04:32N 56°20' E 011°27'10314.7
2015-Mar-23 21:33N 54°38' E 011°05'1818.0
2015-Mar-23 20:33N 54°30' E 011°34'1716.9
2015-Mar-23 19:33N 54°26' E 012°02'1515.3
2015-Mar-23 18:33N 54°38' E 012°17'1717.3
2015-Mar-23 17:34N 54°47' E 012°42'1817.7
2015-Mar-23 16:33N 54°53' E 013°11'1817.8
2015-Mar-23 15:34N 54°60' E 013°40'1817.7
2015-Mar-23 14:33N 55°07' E 014°08'1817.6
2015-Mar-23 13:33N 55°20' E 014°28'1717.1
2015-Mar-23 12:33N 55°31' E 014°51'1817.3
2015-Mar-23 11:32N 55°40' E 015°18'354 7.8
2015-Mar-21 14:17N 59°39' E 023°26'1317.6
2015-Mar-21 13:33N 59°43' E 023°51'1817.6
2015-Mar-21 12:30N 59°48' E 024°26'3115.4
2015-Mar-21 10:31N 60°08' E 025°12'5 5.0
2015-Mar-21 09:33N 60°13' E 025°12'0 0.0
2015-Mar-21 08:20N 60°13' E 025°12'0 0.0
2015-Mar-21 07:26N 60°13' E 025°12'0 0.0
2015-Mar-21 06:32N 60°13' E 025°12'0 0.0
2015-Mar-21 05:32N 60°13' E 025°12'0 0.0
2015-Mar-21 04:32N 60°13' E 025°12'0 0.0
2015-Mar-21 03:32N 60°13' E 025°12'0 0.0
2015-Mar-21 02:32N 60°13' E 025°12'0 0.0
2015-Mar-21 01:32N 60°13' E 025°12'0 0.0
2015-Mar-21 00:32N 60°13' E 025°12'2 1.7
2015-Mar-20 23:34N 60°11' E 025°13'2612.4
2015-Mar-20 21:29N 59°59' E 025°58'1718.7
2015-Mar-20 20:34N 60°01' E 026°32'2018.0
2015-Mar-20 19:26N 60°02' E 027°12'  
Track history (hours):
 
Tides and Currents Weather Stations Pressure Air Temp Water Temp Dewpoint Dewpoint Depression Visibility Wind Speed Wind Dir Waves Ship Positions

Containerships 6

Last reported at 2015-Mar-29 23:33 UTC. Time now 2015-Mar-29 23:48 UTC.
Position N 59°34' E 023°25'.

Length 155 m; beam 21.8 m; draft 8.9 m.

Type: Ship (hazmat cat A). MMSI: 211315096.

Date/timePositionNaut miles runAvg speedWind from/ knotsBaromVisibWave heightAir tempDewpointWater temp
2015-Mar-29 23:33N 59°34' E 023°25'34518.8
2015-Mar-29 05:15N 55°40' E 015°33'1319.3
2015-Mar-29 04:33N 55°34' E 015°12'2019.6
2015-Mar-29 03:33N 55°25' E 014°41'1919.4
2015-Mar-29 02:33N 55°11' E 014°17'1918.6
2015-Mar-29 01:33N 55°11' E 013°44'2218.8
2015-Mar-29 00:24N 55°13' E 013°06'1518.1
2015-Mar-28 23:33N 55°17' E 012°40'1514.7
2015-Mar-28 22:33N 55°32' E 012°42'9 9.4
2015-Mar-28 21:34N 55°41' E 012°41'1616.4
2015-Mar-28 20:34N 55°57' E 012°40'1616.5
2015-Mar-28 19:34N 56°11' E 012°22'1717.2
2015-Mar-28 18:33N 56°23' E 012°01'1919.1
2015-Mar-28 17:33N 56°42' E 011°54'1918.9
2015-Mar-28 16:33N 56°60' E 011°42'1918.6
2015-Mar-28 15:33N 57°17' E 011°30'1818.1
2015-Mar-28 14:33N 57°33' E 011°12'1818.0
2015-Mar-28 13:33N 57°45' E 010°49'1918.7
2015-Mar-28 12:33N 57°43' E 010°14'8118.9
2015-Mar-28 08:14N 56°57' E 008°10'8818.7
2015-Mar-28 03:31N 55°42' E 006°44'9818.9
2015-Mar-27 22:21N 54°20' E 005°14'1519.0
2015-Mar-27 21:33N 54°07' E 005°01'1918.7
2015-Mar-27 20:33N 53°48' E 004°53'1818.4
2015-Mar-27 19:33N 53°30' E 004°47'1817.9
2015-Mar-27 18:33N 53°15' E 004°33'5317.6
2015-Mar-27 15:33N 52°27' E 003°54'1717.2
2015-Mar-27 14:33N 52°10' E 003°54'1312.6
2015-Mar-27 13:34N 51°59' E 004°05'1312.7
2015-Mar-27 12:33N 51°54' E 004°23'1 1.4
2015-Mar-27 11:31N 51°53' E 004°25'0 0.0
2015-Mar-27 10:31N 51°53' E 004°25'0 0.0
2015-Mar-27 09:31N 51°53' E 004°25'0 0.0
2015-Mar-27 08:31N 51°53' E 004°25'0 0.0
2015-Mar-27 07:31N 51°53' E 004°25'0 0.0
2015-Mar-27 06:31N 51°53' E 004°25'0 0.0
2015-Mar-27 05:31N 51°53' E 004°25'0 0.0
2015-Mar-27 04:31N 51°53' E 004°25'0 0.0
2015-Mar-27 03:31N 51°53' E 004°25'0 0.0
2015-Mar-27 02:31N 51°53' E 004°25'0 0.0
2015-Mar-27 01:31N 51°53' E 004°25'0 0.0
2015-Mar-27 00:31N 51°53' E 004°25'0 0.0
2015-Mar-26 23:31N 51°53' E 004°25'0 0.0
2015-Mar-26 22:28N 51°53' E 004°25'0 0.0
2015-Mar-26 21:31N 51°53' E 004°25'0 0.0
2015-Mar-26 20:31N 51°53' E 004°25'0 0.0
2015-Mar-26 19:31N 51°53' E 004°25'0 0.0
2015-Mar-26 18:31N 51°53' E 004°25'0 0.0
2015-Mar-26 17:31N 51°53' E 004°25'0 0.0
2015-Mar-26 16:31N 51°53' E 004°25'0 0.0
2015-Mar-26 15:34N 51°53' E 004°25'8 7.6
2015-Mar-26 14:33N 51°55' E 004°14'1514.9
2015-Mar-26 13:34N 52°01' E 003°51'8717.5
2015-Mar-26 08:33N 52°49' E 001°51'1717.1
2015-Mar-26 07:33N 53°01' E 001°31'1717.2
2015-Mar-26 06:33N 53°15' E 001°13'3517.4
2015-Mar-26 04:32N 53°44' E 000°43'1717.6
2015-Mar-26 03:33N 53°57' E 000°23'1817.8
2015-Mar-26 02:34N 54°09' E 000°01'1717.1
2015-Mar-26 01:33N 54°23' W 000°17'1817.6
2015-Mar-26 00:33N 54°34' W 000°40'1716.7
2015-Mar-25 23:33N 54°40' W 001°07'4 0.6
2015-Mar-25 17:32N 54°36' W 001°09'0 0.0
2015-Mar-25 16:32N 54°36' W 001°09'0 0.0
2015-Mar-25 15:32N 54°36' W 001°09'0 0.0
2015-Mar-25 14:32N 54°36' W 001°09'0 0.0
2015-Mar-25 13:20N 54°36' W 001°09'0 0.0
2015-Mar-25 12:32N 54°36' W 001°09'0 0.5
2015-Mar-25 11:33N 54°36' W 001°10'4 4.2
2015-Mar-25 10:33N 54°40' W 001°07'1716.8
2015-Mar-25 09:33N 54°49' W 000°41'2018.2
2015-Mar-25 08:28N 54°57' W 000°10'38018.2
2015-Mar-24 11:33N 57°44' E 010°06'1817.9
2015-Mar-24 10:33N 57°48' E 010°38'1817.5
2015-Mar-24 09:33N 57°39' E 011°06'1818.2
2015-Mar-24 08:33N 57°25' E 011°29'1817.9
2015-Mar-24 07:34N 57°08' E 011°39'1817.9
2015-Mar-24 06:33N 56°51' E 011°51'1616.4
2015-Mar-24 05:33N 56°35' E 011°45'1818.0
2015-Mar-24 04:32N 56°20' E 011°27'10314.7
2015-Mar-23 21:33N 54°38' E 011°05'1818.0
2015-Mar-23 20:33N 54°30' E 011°34'1716.9
2015-Mar-23 19:33N 54°26' E 012°02'1515.3
2015-Mar-23 18:33N 54°38' E 012°17'1717.3
2015-Mar-23 17:34N 54°47' E 012°42'1817.7
2015-Mar-23 16:33N 54°53' E 013°11'1817.8
2015-Mar-23 15:34N 54°60' E 013°40'1817.7
2015-Mar-23 14:33N 55°07' E 014°08'1817.6
2015-Mar-23 13:33N 55°20' E 014°28'1717.1
2015-Mar-23 12:33N 55°31' E 014°51'1817.3
2015-Mar-23 11:32N 55°40' E 015°18'354 7.8
2015-Mar-21 14:17N 59°39' E 023°26'1317.6
2015-Mar-21 13:33N 59°43' E 023°51'1817.6
2015-Mar-21 12:30N 59°48' E 024°26'3115.4
2015-Mar-21 10:31N 60°08' E 025°12'5 5.0
2015-Mar-21 09:33N 60°13' E 025°12'0 0.0
2015-Mar-21 08:20N 60°13' E 025°12'0 0.0
2015-Mar-21 07:26N 60°13' E 025°12'0 0.0
2015-Mar-21 06:32N 60°13' E 025°12'0 0.0
2015-Mar-21 05:32N 60°13' E 025°12'0 0.0
2015-Mar-21 04:32N 60°13' E 025°12'0 0.0
2015-Mar-21 03:32N 60°13' E 025°12'0 0.0
2015-Mar-21 02:32N 60°13' E 025°12'0 0.0
2015-Mar-21 01:32N 60°13' E 025°12'0 0.0
2015-Mar-21 00:32N 60°13' E 025°12'2 1.7
2015-Mar-20 23:34N 60°11' E 025°13'2612.4
2015-Mar-20 21:29N 59°59' E 025°58'1718.7
2015-Mar-20 20:34N 60°01' E 026°32'2018.0
2015-Mar-20 19:26N 60°02' E 027°12'  

Dump ship's entire track history